Time;durP1;ratioP1;P1;durP2;ratioP2;P2;SDS_P1;SDS_P2;PMS_P1;PMS_P2;Temp;Humidity;BMP_temperature;BMP_pressure;BME280_temperature;BME280_humidity;BME280_pressure;Samples;Min_cycle;Max_cycle;Signal;HPM_P1;HPM_P2
2021/09/18 00:02:00;;;;;;;9.32;5.00;;;;;;;10.18;100.00;98758.81;5053201;28;20467;-68
2021/09/18 00:04:25;;;;;;;9.38;4.80;;;;;;;10.17;100.00;98757.16;5043436;28;20113;-68
2021/09/18 00:06:50;;;;;;;7.88;5.60;;;;;;;10.15;100.00;98765.47;5036605;28;20017;-69
2021/09/18 00:09:16;;;;;;;9.07;4.82;;;;;;;10.08;100.00;98768.13;5034045;28;20033;-69
2021/09/18 00:11:41;;;;;;;15.30;5.50;;;;;;;10.21;100.00;98759.22;5041185;28;20029;-68
2021/09/18 00:14:06;;;;;;;8.85;5.25;;;;;;;10.16;100.00;98753.59;5033587;28;20025;-68
2021/09/18 00:16:32;;;;;;;6.10;4.88;;;;;;;10.13;100.00;98754.00;5035365;28;20028;-68
2021/09/18 00:18:57;;;;;;;6.95;4.93;;;;;;;10.07;100.00;98760.22;5043431;28;20118;-68
2021/09/18 00:21:22;;;;;;;5.88;4.50;;;;;;;10.03;100.00;98759.81;5033534;28;20064;-68
2021/09/18 00:23:49;;;;;;;6.45;4.60;;;;;;;10.03;100.00;98758.94;5047542;28;20471;-68
2021/09/18 00:26:14;;;;;;;6.65;5.13;;;;;;;9.82;100.00;98746.38;5051003;28;20025;-68
2021/09/18 00:28:39;;;;;;;6.95;4.70;;;;;;;9.94;100.00;98757.47;5033280;28;20611;-68
2021/09/18 00:31:05;;;;;;;7.78;5.07;;;;;;;10.01;100.00;98761.03;5032954;28;20045;-68
2021/09/18 00:33:30;;;;;;;6.75;4.63;;;;;;;10.04;100.00;98755.22;5037188;28;20021;-68
2021/09/18 00:35:55;;;;;;;7.97;5.15;;;;;;;10.05;100.00;98765.00;5049768;28;20158;-69
2021/09/18 00:38:21;;;;;;;9.93;4.95;;;;;;;9.94;100.00;98752.06;5033533;28;20031;-68
2021/09/18 00:40:46;;;;;;;7.80;4.15;;;;;;;10.16;100.00;98769.81;5035860;28;20037;-68
2021/09/18 00:43:11;;;;;;;7.30;4.07;;;;;;;9.95;100.00;98732.94;5047243;28;20029;-68
2021/09/18 00:45:37;;;;;;;6.22;4.38;;;;;;;10.00;100.00;98759.34;5053011;28;20441;-68
2021/09/18 00:48:03;;;;;;;6.97;4.50;;;;;;;9.70;100.00;98743.41;5052801;28;20033;-69
2021/09/18 00:50:28;;;;;;;7.55;4.93;;;;;;;9.84;100.00;98769.47;5051699;28;20082;-68
2021/09/18 00:52:54;;;;;;;6.22;4.13;;;;;;;9.73;100.00;98764.63;5039759;28;20025;-68
2021/09/18 00:55:19;;;;;;;7.72;4.80;;;;;;;9.49;100.00;98759.69;5049991;28;20390;-69
2021/09/18 00:57:45;;;;;;;6.55;5.00;;;;;;;9.58;100.00;98763.91;5052917;28;20070;-68
2021/09/18 01:00:13;;;;;;;8.90;4.70;;;;;;;9.65;100.00;98775.59;5041812;28;20022;-68
2021/09/18 01:02:39;;;;;;;6.97;4.55;;;;;;;9.70;100.00;98770.44;5032715;28;20664;-68
2021/09/18 01:05:06;;;;;;;6.35;4.40;;;;;;;9.68;100.00;98775.19;5033348;28;20034;-69
2021/09/18 01:07:32;;;;;;;7.10;4.68;;;;;;;9.65;100.00;98767.50;5049576;28;20025;-69
2021/09/18 01:09:58;;;;;;;7.20;4.70;;;;;;;9.61;100.00;98761.63;5045379;28;20116;-68
2021/09/18 01:12:23;;;;;;;7.72;4.97;;;;;;;9.65;100.00;98762.09;5050238;28;20021;-69
2021/09/18 01:14:48;;;;;;;6.97;4.50;;;;;;;9.62;100.00;98762.50;5050633;28;22082;-69
2021/09/18 01:17:15;;;;;;;7.15;5.00;;;;;;;9.57;100.00;98764.94;5046396;28;20029;-68
2021/09/18 01:19:41;;;;;;;8.18;5.53;;;;;;;9.46;100.00;98752.81;5032770;28;20109;-69
2021/09/18 01:22:07;;;;;;;7.38;5.20;;;;;;;9.49;100.00;98759.69;5044322;28;20402;-68
2021/09/18 01:24:34;;;;;;;10.88;5.20;;;;;;;9.38;100.00;98752.97;5034032;28;20033;-68
2021/09/18 01:26:59;;;;;;;7.00;4.90;;;;;;;9.44;100.00;98757.59;5039414;28;20017;-69
2021/09/18 01:29:25;;;;;;;9.23;5.32;;;;;;;9.42;100.00;98765.88;5015326;28;20025;-68
2021/09/18 01:31:50;;;;;;;9.15;5.03;;;;;;;9.40;100.00;98759.81;5046381;28;20109;-69
2021/09/18 01:34:18;;;;;;;11.90;5.47;;;;;;;9.40;100.00;98765.22;5047810;28;20099;-69
2021/09/18 01:36:43;;;;;;;9.18;5.47;;;;;;;9.29;100.00;98749.56;5041536;28;20032;-68
2021/09/18 01:39:10;;;;;;;6.68;4.90;;;;;;;9.42;100.00;98754.25;5040112;28;20021;-68
2021/09/18 01:41:36;;;;;;;9.00;6.15;;;;;;;9.42;100.00;98744.25;5070709;28;20028;-68
2021/09/18 01:44:03;;;;;;;8.88;5.22;;;;;;;9.46;100.00;98757.38;5069743;28;20044;-68
2021/09/18 01:46:28;;;;;;;11.00;6.07;;;;;;;9.49;100.00;98755.13;5039767;28;20026;-68
2021/09/18 01:48:56;;;;;;;11.60;5.18;;;;;;;9.50;100.00;98753.25;5040578;28;20025;-68
2021/09/18 01:51:22;;;;;;;8.43;3.78;;;;;;;9.50;100.00;98756.78;5035702;28;20033;-69
2021/09/18 01:53:48;;;;;;;9.85;5.03;;;;;;;9.48;100.00;98760.72;5039466;28;20016;-69
2021/09/18 01:56:13;;;;;;;5.78;4.22;;;;;;;9.38;100.00;98763.78;5050772;28;20033;-68
2021/09/18 01:58:38;;;;;;;7.55;4.72;;;;;;;9.30;100.00;98762.06;5033042;28;20079;-68
2021/09/18 02:01:05;;;;;;;7.47;4.90;;;;;;;9.24;100.00;98762.81;5051916;28;20021;-69
2021/09/18 02:03:31;;;;;;;6.47;4.40;;;;;;;9.18;100.00;98753.66;5048589;28;20036;-69
2021/09/18 02:05:57;;;;;;;8.52;5.20;;;;;;;9.11;100.00;98741.97;5040301;28;20029;-68
2021/09/18 02:08:22;;;;;;;8.00;4.95;;;;;;;9.27;100.00;98758.91;5047846;28;20033;-69
2021/09/18 02:10:49;;;;;;;5.20;4.10;;;;;;;9.37;100.00;98762.09;5053794;28;20044;-69
2021/09/18 02:13:15;;;;;;;7.88;5.00;;;;;;;9.24;100.00;98743.09;5035764;28;20040;-68
2021/09/18 02:15:40;;;;;;;6.68;4.35;;;;;;;9.40;100.00;98749.03;5040856;28;20029;-69
2021/09/18 02:18:07;;;;;;;9.40;4.55;;;;;;;9.18;100.00;98736.63;5037876;28;20037;-69
2021/09/18 02:20:33;;;;;;;5.50;3.95;;;;;;;9.35;100.00;98765.00;5034481;28;20033;-69
2021/09/18 02:22:59;;;;;;;6.95;3.85;;;;;;;9.27;100.00;98750.81;5048976;28;20024;-68
2021/09/18 02:25:26;;;;;;;8.73;4.78;;;;;;;9.17;100.00;98751.16;5046225;28;20502;-69
2021/09/18 02:27:52;;;;;;;7.50;4.30;;;;;;;8.96;100.00;98728.56;5049484;28;20025;-69
2021/09/18 02:30:20;;;;;;;7.38;4.68;;;;;;;9.20;100.00;98748.06;5047374;28;20036;-69
2021/09/18 02:32:46;;;;;;;7.70;4.53;;;;;;;9.03;100.00;98734.00;5055221;28;20021;-68
2021/09/18 02:35:15;;;;;;;6.53;4.43;;;;;;;9.12;100.00;98753.63;5044975;28;20295;-68
2021/09/18 02:37:41;;;;;;;7.57;4.70;;;;;;;9.07;100.00;98761.47;5035399;28;20029;-69
2021/09/18 02:40:09;;;;;;;6.30;4.70;;;;;;;9.04;100.00;98759.13;5030319;28;20041;-69
2021/09/18 02:42:37;;;;;;;7.05;5.07;;;;;;;8.98;100.00;98737.28;5035198;28;20091;-68
2021/09/18 02:45:04;;;;;;;7.75;4.70;;;;;;;9.13;100.00;98745.31;5045975;28;20083;-68
2021/09/18 02:47:29;;;;;;;7.57;5.60;;;;;;;9.34;100.00;98751.69;5054652;28;20040;-69
2021/09/18 02:49:55;;;;;;;6.57;4.70;;;;;;;9.23;100.00;98746.84;5036494;28;20017;-68
2021/09/18 02:52:20;;;;;;;10.60;5.03;;;;;;;9.17;100.00;98757.38;5042281;28;20107;-68
2021/09/18 02:54:45;;;;;;;7.13;5.13;;;;;;;9.06;100.00;98752.50;5054862;28;20074;-68
2021/09/18 02:57:10;;;;;;;6.88;4.97;;;;;;;8.90;100.00;98750.09;5049153;28;20112;-69
2021/09/18 02:59:36;;;;;;;8.68;5.00;;;;;;;8.79;100.00;98746.03;5034913;28;20030;-68
2021/09/18 03:02:03;;;;;;;5.72;4.57;;;;;;;8.72;100.00;98750.53;5068863;28;20029;-69
2021/09/18 03:04:29;;;;;;;8.95;5.35;;;;;;;8.66;100.00;98719.78;5054270;28;20036;-69
2021/09/18 03:06:54;;;;;;;11.38;5.35;;;;;;;8.85;100.00;98741.75;5054119;28;20025;-69
2021/09/18 03:09:19;;;;;;;7.07;4.90;;;;;;;8.84;100.00;98743.59;5046799;28;20029;-69
2021/09/18 03:11:45;;;;;;;8.38;5.55;;;;;;;8.87;100.00;98745.91;5040453;28;20034;-68
2021/09/18 03:14:10;;;;;;;9.40;5.07;;;;;;;8.89;100.00;98735.75;5045590;28;20028;-68
2021/09/18 03:16:35;;;;;;;7.97;5.00;;;;;;;8.78;100.00;98720.13;5033370;28;20041;-69
2021/09/18 03:19:00;;;;;;;7.05;4.28;;;;;;;8.80;100.00;98730.69;5036883;28;20112;-68
2021/09/18 03:21:26;;;;;;;8.98;5.43;;;;;;;8.71;100.00;98732.69;5043977;28;20355;-69
2021/09/18 03:23:51;;;;;;;6.35;4.35;;;;;;;8.56;100.00;98738.97;5052858;28;20025;-68
2021/09/18 03:26:16;;;;;;;4.93;3.50;;;;;;;8.63;100.00;98738.22;5055557;28;20036;-69
2021/09/18 03:28:41;;;;;;;5.35;3.60;;;;;;;8.51;100.00;98725.25;5059565;28;20366;-69
2021/09/18 03:31:07;;;;;;;5.75;3.80;;;;;;;8.59;100.00;98731.53;5036177;28;20025;-68
2021/09/18 03:33:32;;;;;;;5.75;4.00;;;;;;;8.59;100.00;98737.75;5035140;28;20524;-68
2021/09/18 03:35:57;;;;;;;5.22;3.90;;;;;;;8.58;100.00;98736.09;5050378;28;20032;-69
2021/09/18 03:38:23;;;;;;;5.35;3.83;;;;;;;8.42;100.00;98730.97;5046833;28;20686;-68
2021/09/18 03:40:48;;;;;;;12.50;4.35;;;;;;;8.43;100.00;98738.84;5034325;28;20033;-69
2021/09/18 03:43:14;;;;;;;6.22;4.45;;;;;;;8.38;100.00;98738.53;5045589;28;20029;-69
2021/09/18 03:45:39;;;;;;;8.02;4.45;;;;;;;8.33;100.00;98731.06;5035674;28;20037;-69
2021/09/18 03:48:04;;;;;;;7.45;5.05;;;;;;;8.42;100.00;98723.69;5052605;28;20039;-68
2021/09/18 03:50:29;;;;;;;10.45;5.13;;;;;;;8.49;100.00;98730.00;5034490;28;20037;-68
2021/09/18 03:52:55;;;;;;;11.82;5.25;;;;;;;8.47;100.00;98732.06;5045723;28;20107;-68
2021/09/18 03:55:20;;;;;;;7.18;4.57;;;;;;;8.48;100.00;98720.22;5053227;28;20055;-69
2021/09/18 03:57:45;;;;;;;6.82;4.45;;;;;;;8.25;100.00;98709.59;5052957;28;20028;-69
2021/09/18 04:00:11;;;;;;;5.82;4.13;;;;;;;8.50;100.00;98728.13;5057098;28;20629;-69
2021/09/18 04:02:37;;;;;;;6.82;3.90;;;;;;;8.40;100.00;98733.84;5036483;28;20024;-71
2021/09/18 04:05:02;;;;;;;5.47;4.20;;;;;;;8.32;100.00;98731.22;5040240;28;20036;-69
2021/09/18 04:07:27;;;;;;;5.47;3.65;;;;;;;8.27;100.00;98744.44;5056864;28;20368;-69
2021/09/18 04:09:53;;;;;;;6.25;3.78;;;;;;;8.21;100.00;98739.81;5042429;28;20028;-69
2021/09/18 04:12:19;;;;;;;6.80;4.13;;;;;;;8.18;100.00;98726.72;5033350;28;20049;-69
2021/09/18 04:14:44;;;;;;;6.40;4.22;;;;;;;8.24;100.00;98725.97;5045726;28;20017;-69
2021/09/18 04:17:09;;;;;;;9.93;5.13;;;;;;;8.20;100.00;98716.56;5048195;28;20113;-69
2021/09/18 04:19:35;;;;;;;11.98;6.38;;;;;;;8.16;100.00;98753.03;5037624;28;20029;-69
2021/09/18 04:22:01;;;;;;;10.77;5.93;;;;;;;7.69;100.00;98680.53;5049636;28;20025;-69
2021/09/18 04:24:27;;;;;;;9.73;5.65;;;;;;;8.06;100.00;98746.06;5045965;28;20041;-69
2021/09/18 04:26:53;;;;;;;10.32;5.60;;;;;;;8.15;100.00;98745.94;5033436;28;20033;-69
2021/09/18 04:29:18;;;;;;;7.50;4.60;;;;;;;8.11;100.00;98745.50;5032993;28;20036;-69
2021/09/18 04:31:43;;;;;;;7.13;4.82;;;;;;;8.00;100.00;98746.00;5040866;28;20025;-69
2021/09/18 04:34:09;;;;;;;6.07;4.45;;;;;;;8.09;100.00;98744.84;5034286;28;20092;-69
2021/09/18 04:36:34;;;;;;;6.15;4.30;;;;;;;7.99;100.00;98747.00;5052212;28;20056;-69
2021/09/18 04:39:00;;;;;;;10.73;5.13;;;;;;;7.82;100.00;98725.66;5049781;28;20028;-69
2021/09/18 04:41:26;;;;;;;9.95;5.13;;;;;;;7.91;100.00;98721.00;5035781;28;20071;-69
2021/09/18 04:43:54;;;;;;;8.48;4.93;;;;;;;8.07;100.00;98755.84;5052546;28;20166;-69
2021/09/18 04:46:20;;;;;;;6.32;4.30;;;;;;;8.03;100.00;98748.31;5041368;28;20053;-69
2021/09/18 04:48:46;;;;;;;6.07;4.05;;;;;;;7.81;100.00;98736.63;5036185;28;20502;-69
2021/09/18 04:51:12;;;;;;;4.93;3.63;;;;;;;7.88;100.00;98761.78;5037441;28;20025;-74
2021/09/18 04:53:37;;;;;;;7.57;3.92;;;;;;;7.75;100.00;98740.06;5043111;28;20104;-76
2021/09/18 04:56:03;;;;;;;7.32;4.75;;;;;;;7.69;100.00;98741.66;5041235;28;20116;-75
2021/09/18 04:58:30;;;;;;;7.55;4.10;;;;;;;7.72;100.00;98770.06;5046884;28;20071;-75
2021/09/18 05:00:55;;;;;;;8.88;4.45;;;;;;;7.60;100.00;98745.47;5034734;28;20093;-74
2021/09/18 05:03:20;;;;;;;7.18;4.85;;;;;;;7.74;100.00;98758.09;5048673;28;20475;-75
2021/09/18 05:05:46;;;;;;;6.00;4.20;;;;;;;7.94;100.00;98777.22;5033752;28;20034;-75
2021/09/18 05:08:12;;;;;;;6.78;4.32;;;;;;;7.92;100.00;98765.78;5048872;28;20025;-75
2021/09/18 05:10:37;;;;;;;5.53;3.63;;;;;;;8.01;100.00;98774.59;5045002;28;20029;-67
2021/09/18 05:13:02;;;;;;;5.72;3.70;;;;;;;8.07;100.00;98782.78;5050802;28;20028;-75
2021/09/18 05:15:28;;;;;;;4.43;3.30;;;;;;;7.97;100.00;98768.75;5034094;28;20021;-75
2021/09/18 05:17:54;;;;;;;5.47;3.45;;;;;;;8.01;100.00;98772.72;5039379;28;20021;-74
2021/09/18 05:20:19;;;;;;;3.65;2.70;;;;;;;7.99;100.00;98747.84;5041143;28;20405;-75
2021/09/18 05:22:44;;;;;;;6.45;3.10;;;;;;;8.25;100.00;98778.81;5072263;28;20043;-73
2021/09/18 05:25:10;;;;;;;4.22;3.08;;;;;;;8.40;100.00;98773.44;5047265;28;20030;-74
2021/09/18 05:27:35;;;;;;;3.88;3.10;;;;;;;8.56;100.00;98770.50;5032897;28;20040;-75
2021/09/18 05:30:02;;;;;;;5.43;3.92;;;;;;;8.59;100.00;98763.88;5046027;28;20025;-74
2021/09/18 05:32:27;;;;;;;6.80;3.10;;;;;;;8.81;100.00;98762.06;5052070;28;20406;-75
2021/09/18 05:34:52;;;;;;;4.05;3.10;;;;;;;9.11;100.00;98763.53;5035359;28;20017;-76
2021/09/18 05:37:18;;;;;;;8.43;3.60;;;;;;;10.03;100.00;98784.13;5041692;28;20025;-76
2021/09/18 05:39:43;;;;;;;3.60;2.63;;;;;;;10.79;95.81;98779.63;5035738;28;20025;-75
2021/09/18 05:42:08;;;;;;;6.43;3.65;;;;;;;10.86;92.81;98773.19;5056475;28;20076;-76
2021/09/18 05:44:34;;;;;;;8.25;3.58;;;;;;;10.80;93.27;98774.00;5037731;28;20495;-72
2021/09/18 05:46:59;;;;;;;5.00;2.80;;;;;;;10.69;94.37;98786.28;5044185;28;20021;-71
2021/09/18 05:49:25;;;;;;;8.45;3.50;;;;;;;10.67;95.79;98780.22;5036741;28;20097;-71
2021/09/18 05:51:50;;;;;;;5.20;2.60;;;;;;;10.71;95.61;98792.28;5048205;28;20490;-72
2021/09/18 05:54:15;;;;;;;4.13;2.70;;;;;;;10.91;94.21;98786.94;5054800;28;20025;-72
2021/09/18 05:56:40;;;;;;;4.03;2.47;;;;;;;11.52;89.54;98788.59;5043177;28;20048;-72
2021/09/18 05:59:06;;;;;;;5.53;3.40;;;;;;;12.48;84.99;98784.44;5038777;28;20040;-70
2021/09/18 06:01:31;;;;;;;8.85;3.58;;;;;;;12.85;78.35;98781.91;5050663;28;20051;-70
2021/09/18 06:03:56;;;;;;;8.02;4.30;;;;;;;13.73;75.08;98791.91;5053793;28;20029;-70
2021/09/18 06:06:22;;;;;;;6.72;4.57;;;;;;;14.71;74.01;98792.91;5052783;28;20441;-70
2021/09/18 06:08:47;;;;;;;5.97;2.60;;;;;;;16.08;66.87;98783.75;5054162;28;20025;-75
2021/09/18 06:11:12;;;;;;;5.53;2.45;;;;;;;17.31;61.91;98785.06;5035323;28;20027;-71
2021/09/18 06:13:38;;;;;;;4.43;2.30;;;;;;;17.95;58.90;98787.50;5052976;28;20021;-70
2021/09/18 06:16:04;;;;;;;5.32;2.50;;;;;;;18.46;56.92;98786.50;5048687;28;20029;-71
2021/09/18 06:18:29;;;;;;;7.13;2.83;;;;;;;18.95;54.29;98773.66;5055543;28;20028;-72
2021/09/18 06:20:56;;;;;;;4.20;3.17;;;;;;;19.32;55.13;98792.13;5056980;28;20029;-71
2021/09/18 06:23:22;;;;;;;7.68;2.60;;;;;;;20.00;53.51;98789.63;5054637;28;20049;-71
2021/09/18 06:25:47;;;;;;;3.00;2.25;;;;;;;20.03;52.50;98777.28;5047185;28;20063;-71
2021/09/18 06:28:12;;;;;;;4.47;3.05;;;;;;;20.99;50.08;98789.81;5048010;28;20402;-70
2021/09/18 06:30:38;;;;;;;3.58;2.70;;;;;;;22.06;47.26;98787.09;5050666;28;20025;-71
2021/09/18 06:33:05;;;;;;;6.25;2.95;;;;;;;21.95;45.81;98787.38;5048819;28;20075;-70
2021/09/18 06:35:30;;;;;;;6.72;3.08;;;;;;;21.64;46.38;98779.13;5047840;28;20048;-72
2021/09/18 06:37:55;;;;;;;4.03;2.90;;;;;;;21.02;48.38;98789.25;5050997;28;20052;-75
2021/09/18 06:40:21;;;;;;;3.92;2.97;;;;;;;22.01;46.45;98776.06;5035200;28;20025;-73
2021/09/18 06:42:47;;;;;;;5.18;3.13;;;;;;;21.52;47.26;98787.69;5048968;28;20041;-76
2021/09/18 06:45:14;;;;;;;5.32;2.83;;;;;;;21.46;46.98;98777.78;5053671;28;20029;-75
2021/09/18 06:47:39;;;;;;;8.25;2.83;;;;;;;21.83;46.66;98776.66;5054225;28;20043;-75
2021/09/18 06:50:07;;;;;;;5.18;2.80;;;;;;;21.39;47.57;98768.97;5039096;28;20040;-75
2021/09/18 06:52:35;;;;;;;4.10;2.92;;;;;;;23.30;43.19;98776.34;5060511;28;20017;-76
2021/09/18 06:55:00;;;;;;;4.57;3.17;;;;;;;23.21;44.45;98780.81;5061716;28;20005;-78
2021/09/18 06:57:32;;;;;;;5.35;3.47;;;;;;;24.00;42.65;98778.78;5060283;28;20025;-77
2021/09/18 06:59:58;;;;;;;5.57;3.20;;;;;;;22.79;44.16;98765.59;5067402;28;20124;-77
2021/09/18 07:02:23;;;;;;;5.65;3.05;;;;;;;22.82;44.96;98763.09;5054794;28;20053;-78
2021/09/18 07:04:48;;;;;;;7.10;3.58;;;;;;;22.80;44.32;98770.84;5039676;28;20021;-75
2021/09/18 07:07:13;;;;;;;4.63;3.08;;;;;;;24.27;40.98;98776.25;5054413;28;20479;-78
2021/09/18 07:09:39;;;;;;;4.95;3.10;;;;;;;24.48;41.88;98781.59;5053986;28;20021;-75
2021/09/18 07:12:04;;;;;;;4.10;3.33;;;;;;;23.73;42.39;98768.25;5039029;28;20039;-75
2021/09/18 07:14:30;;;;;;;3.97;3.15;;;;;;;23.90;42.63;98768.66;5047305;28;20020;-77
2021/09/18 07:16:55;;;;;;;6.68;3.20;;;;;;;24.10;42.10;98775.06;5038783;28;20025;-77
2021/09/18 07:19:20;;;;;;;6.70;3.42;;;;;;;25.32;40.20;98773.50;5035306;28;20494;-78
2021/09/18 07:21:45;;;;;;;6.32;3.17;;;;;;;25.32;40.30;98778.22;5036178;28;20047;-77
2021/09/18 07:24:11;;;;;;;3.30;3.00;;;;;;;25.63;40.61;98786.88;5054879;28;20057;-77
2021/09/18 07:26:36;;;;;;;4.13;3.33;;;;;;;25.62;40.66;98790.75;5057913;28;20473;-77
2021/09/18 07:29:03;;;;;;;3.55;2.95;;;;;;;25.27;41.85;98778.31;5052868;28;20074;-76
2021/09/18 07:31:29;;;;;;;7.72;3.55;;;;;;;26.91;38.46;98781.66;5058028;28;20017;-77
2021/09/18 07:33:54;;;;;;;3.60;2.90;;;;;;;27.57;36.25;98787.63;5050551;28;20025;-77
2021/09/18 07:36:20;;;;;;;7.25;3.35;;;;;;;27.57;37.12;98787.63;5050324;28;20033;-76
2021/09/18 07:38:45;;;;;;;3.72;2.95;;;;;;;27.36;36.94;98770.66;5052573;28;20040;-77
2021/09/18 07:41:11;;;;;;;4.97;3.22;;;;;;;27.71;36.68;98765.31;5046681;28;20029;-75
2021/09/18 07:43:36;;;;;;;7.53;3.15;;;;;;;27.86;36.79;98783.59;5015402;28;20306;-76
2021/09/18 07:46:02;;;;;;;4.20;3.10;;;;;;;28.56;35.09;98785.59;5049350;28;20070;-74
2021/09/18 07:48:29;;;;;;;7.18;3.10;;;;;;;27.81;36.12;98767.06;5051878;28;20485;-76
2021/09/18 07:50:55;;;;;;;4.88;3.20;;;;;;;27.64;37.59;98784.41;5039037;28;20021;-68
2021/09/18 07:53:21;;;;;;;5.38;3.53;;;;;;;26.27;39.51;98794.63;5041142;28;20070;-68
2021/09/18 07:55:46;;;;;;;5.70;3.78;;;;;;;27.71;37.23;98793.94;5052099;28;20549;-68
2021/09/18 07:58:11;;;;;;;12.63;3.15;;;;;;;28.73;35.37;98786.78;5051766;28;20025;-68
2021/09/18 08:00:37;;;;;;;4.22;3.65;;;;;;;28.09;36.59;98790.78;5053316;28;20033;-68
2021/09/18 08:03:02;;;;;;;3.67;3.30;;;;;;;28.94;35.17;98781.41;5043578;28;20030;-68
2021/09/18 08:05:27;;;;;;;8.60;4.05;;;;;;;27.72;36.94;98787.25;5036439;28;20075;-68
2021/09/18 08:07:53;;;;;;;4.40;3.40;;;;;;;27.48;37.44;98792.31;5032844;28;20051;-68
2021/09/18 08:10:18;;;;;;;6.30;4.00;;;;;;;28.41;36.33;98781.25;5032808;28;20017;-68
2021/09/18 08:12:47;;;;;;;7.03;4.47;;;;;;;28.55;35.37;98783.94;5050505;28;20111;-68
2021/09/18 08:15:12;;;;;;;;;;;;;;;29.73;33.59;98782.28;5052862;28;20016;-68
2021/09/18 08:17:39;;;;;;;4.80;3.67;;;;;;;29.09;35.08;98789.34;5037919;28;19913;-68
2021/09/18 08:20:05;;;;;;;6.85;3.75;;;;;;;29.83;33.35;98787.50;5041945;28;20087;-68
2021/09/18 08:22:30;;;;;;;5.10;4.00;;;;;;;29.86;33.24;98770.09;5049444;28;20036;-68
2021/09/18 08:24:57;;;;;;;7.70;4.57;;;;;;;30.20;32.35;98785.09;5040035;28;20033;-68
2021/09/18 08:27:22;;;;;;;5.20;4.15;;;;;;;29.74;33.36;98793.13;5032818;28;20035;-68
2021/09/18 08:29:47;;;;;;;3.92;3.50;;;;;;;30.45;32.35;98783.41;5042431;28;20116;-68
2021/09/18 08:32:13;;;;;;;5.20;3.97;;;;;;;29.22;33.34;98781.97;5051840;28;20078;-69
2021/09/18 08:34:38;;;;;;;6.28;3.42;;;;;;;29.17;33.84;98787.69;5042665;28;20025;-68
2021/09/18 08:37:03;;;;;;;4.80;4.28;;;;;;;29.17;34.18;98785.72;5048854;28;20032;-68
2021/09/18 08:39:29;;;;;;;5.43;3.53;;;;;;;29.43;34.43;98788.50;5050711;28;20113;-68
2021/09/18 08:41:54;;;;;;;6.32;3.47;;;;;;;30.45;32.58;98781.41;5040054;28;20029;-68
2021/09/18 08:44:19;;;;;;;4.70;4.13;;;;;;;31.27;31.35;98781.06;5041215;28;20025;-68
2021/09/18 08:46:46;;;;;;;4.88;4.10;;;;;;;29.61;34.74;98780.97;5053066;28;20016;-68
2021/09/18 08:49:12;;;;;;;4.90;4.28;;;;;;;29.39;34.14;98773.59;5051735;28;20382;-68
2021/09/18 08:51:40;;;;;;;5.25;4.10;;;;;;;28.71;35.23;98783.50;5051755;28;20107;-68
2021/09/18 08:54:06;;;;;;;4.63;3.80;;;;;;;29.79;33.65;98784.56;5048633;28;20017;-68
2021/09/18 08:56:31;;;;;;;6.35;3.60;;;;;;;30.28;34.12;98779.50;5036214;28;20027;-68
2021/09/18 08:58:57;;;;;;;4.80;3.83;;;;;;;30.69;32.13;98783.59;5040275;28;20111;-68
2021/09/18 09:01:23;;;;;;;4.47;3.65;;;;;;;32.02;30.46;98780.25;5034165;28;20502;-68
2021/09/18 09:04:01;;;;;;;4.22;3.47;;;;;;;32.47;29.90;98785.81;5041207;28;20336;-68
2021/09/18 09:06:50;;;;;;;5.22;3.70;;;;;;;31.59;31.00;98776.69;5044927;28;20099;-68
2021/09/18 09:09:16;;;;;;;4.93;3.50;;;;;;;30.93;31.76;98784.94;5035146;28;20039;-69
2021/09/18 09:11:49;;;;;;;4.93;3.80;;;;;;;32.08;30.62;98779.69;5052012;28;20100;-69
2021/09/18 09:14:14;;;;;;;5.03;3.97;;;;;;;30.93;31.45;98779.38;5044696;28;20054;-68
2021/09/18 09:17:06;;;;;;;6.93;4.00;;;;;;;30.44;32.57;98778.94;5050283;28;20029;-68
2021/09/18 09:19:39;;;;;;;4.85;3.85;;;;;;;30.58;31.86;98774.78;5043979;28;20076;-68
2021/09/18 09:22:05;;;;;;;5.57;3.88;;;;;;;30.71;32.21;98770.09;5046584;28;20387;-68
2021/09/18 09:24:30;;;;;;;7.32;3.90;;;;;;;30.19;33.12;98764.75;5045010;28;20025;-68
2021/09/18 09:27:13;;;;;;;6.20;3.20;;;;;;;30.71;32.47;98760.91;5042587;28;20025;-68
2021/09/18 09:29:52;;;;;;;5.18;3.53;;;;;;;31.58;30.79;98765.88;5035749;28;20104;-68
2021/09/18 09:32:47;;;;;;;4.28;3.78;;;;;;;31.05;31.07;98767.44;5035750;28;20128;-68
2021/09/18 09:35:14;;;;;;;4.75;3.60;;;;;;;31.38;30.82;98761.94;5028306;28;20041;-68
2021/09/18 09:37:51;;;;;;;4.28;3.50;;;;;;;31.13;31.39;98759.00;5036101;28;20909;-68
2021/09/18 09:40:48;;;;;;;5.03;3.20;;;;;;;31.01;32.11;98764.50;5038636;28;20450;-67
2021/09/18 09:43:17;;;;;;;3.33;2.50;;;;;;;31.99;30.44;98756.59;5045306;28;20029;-67
2021/09/18 09:45:42;;;;;;;4.20;2.90;;;;;;;32.08;29.73;98757.28;5047507;28;20031;-67
2021/09/18 09:48:10;;;;;;;6.75;3.25;;;;;;;30.22;32.37;98755.72;5039866;28;20029;-67
2021/09/18 09:50:37;;;;;;;4.60;2.83;;;;;;;31.07;31.22;98757.56;5047415;28;20128;-67
2021/09/18 09:53:03;;;;;;;3.90;3.05;;;;;;;30.70;31.38;98757.28;5047203;28;20032;-67
2021/09/18 09:55:34;;;;;;;3.97;3.00;;;;;;;31.89;30.32;98754.19;5055284;28;20021;-67
2021/09/18 09:58:05;;;;;;;3.45;3.15;;;;;;;31.61;30.96;98756.78;5052906;28;20028;-67
2021/09/18 10:00:46;;;;;;;5.38;3.50;;;;;;;30.82;31.32;98755.78;5049055;28;20127;-67
2021/09/18 10:03:11;;;;;;;3.30;2.35;;;;;;;33.19;29.33;98746.03;5042596;28;20033;-67
2021/09/18 10:05:37;;;;;;;3.10;2.33;;;;;;;32.50;30.13;98745.09;5039096;28;20466;-67
2021/09/18 10:08:03;;;;;;;2.45;2.17;;;;;;;33.41;29.53;98743.88;5046736;28;20275;-67
2021/09/18 10:10:31;;;;;;;3.63;2.45;;;;;;;34.05;28.88;98751.25;5054925;28;20025;-67
2021/09/18 10:12:57;;;;;;;4.50;2.10;;;;;;;35.26;26.66;98756.19;5051138;28;20025;-67
2021/09/18 10:15:28;;;;;;;3.78;2.50;;;;;;;33.44;28.64;98762.78;5046840;28;20036;-67
2021/09/18 10:17:56;;;;;;;2.47;2.28;;;;;;;34.13;28.01;98758.72;5041995;28;20502;-67
2021/09/18 10:25:36;;;;;;;3.38;2.38;;;;;;;34.61;26.76;98751.13;5051274;28;20028;-67
2021/09/18 10:28:11;;;;;;;3.17;2.60;;;;;;;33.64;27.24;98746.94;5050899;28;20047;-67
2021/09/18 10:30:42;;;;;;;4.78;2.85;;;;;;;32.31;29.31;98740.06;5038704;28;20458;-67
2021/09/18 10:33:30;;;;;;;3.25;2.00;;;;;;;33.02;29.15;98732.31;5041730;28;20069;-67
2021/09/18 10:36:09;;;;;;;;;;;;;;;34.67;27.87;98729.97;5040304;28;20526;-67
2021/09/18 10:38:41;;;;;;;4.50;2.10;;;;;;;33.70;27.60;98737.09;5042782;28;20322;-67
2021/09/18 10:41:21;;;;;;;2.50;2.13;;;;;;;33.93;27.44;98729.72;5041980;28;20024;-67
2021/09/18 10:43:57;;;;;;;2.15;1.95;;;;;;;33.76;27.98;98730.84;5041454;28;20147;-67
2021/09/18 10:46:44;;;;;;;2.60;2.25;;;;;;;34.12;27.13;98729.03;5043732;28;20040;-67
2021/09/18 10:52:17;;;;;;;4.25;2.10;;;;;;;33.81;27.72;98724.97;5044219;28;20674;-67
2021/09/18 10:55:10;;;;;;;3.28;2.30;;;;;;;33.74;29.66;98726.78;5045746;28;20577;-67
2021/09/18 10:57:35;;;;;;;2.83;2.33;;;;;;;34.04;28.88;98732.78;5031087;28;20033;-68
2021/09/18 11:00:01;;;;;;;3.53;2.25;;;;;;;34.67;27.01;98726.38;5031222;28;20027;-67
2021/09/18 11:02:32;;;;;;;3.63;2.40;;;;;;;34.80;27.26;98718.63;5032816;28;20064;-68
2021/09/18 11:05:03;;;;;;;2.33;2.13;;;;;;;33.78;28.59;98720.09;5036285;28;20116;-68
2021/09/18 11:07:40;;;;;;;2.90;2.30;;;;;;;34.16;28.70;98715.88;5035687;28;20038;-67
2021/09/18 11:10:11;;;;;;;2.25;1.95;;;;;;;34.38;27.94;98713.59;5047298;28;20063;-67
2021/09/18 11:12:37;;;;;;;2.92;2.25;;;;;;;32.16;31.47;98696.75;5050665;28;20037;-67
2021/09/18 11:15:08;;;;;;;4.22;2.42;;;;;;;30.42;34.13;98708.66;5045427;28;20017;-67
2021/09/18 11:17:37;;;;;;;2.67;2.05;;;;;;;31.19;33.38;98709.31;5030773;28;20648;-67
2021/09/18 11:20:18;;;;;;;5.13;2.13;;;;;;;32.57;32.27;98700.50;5030914;28;20087;-66
2021/09/18 11:22:44;;;;;;;2.22;2.03;;;;;;;33.91;29.49;98709.59;5038068;28;20036;-67
2021/09/18 11:25:30;;;;;;;2.80;2.30;;;;;;;33.97;28.83;98701.72;5032785;28;20025;-67
2021/09/18 11:28:08;;;;;;;3.42;1.90;;;;;;;34.76;27.73;98706.47;5049867;28;20729;-67
2021/09/18 11:30:43;;;;;;;3.67;2.50;;;;;;;33.72;28.04;98698.25;5045360;28;20078;-67
2021/09/18 11:33:11;;;;;;;2.45;1.80;;;;;;;34.89;27.76;98700.34;5049502;28;20025;-69
2021/09/18 11:35:38;;;;;;;1.90;1.73;;;;;;;35.15;27.56;98706.53;5040102;28;20029;-69
2021/09/18 11:38:08;;;;;;;5.32;2.28;;;;;;;33.49;28.59;98698.84;5035392;28;20124;-69
2021/09/18 11:40:35;;;;;;;3.40;2.10;;;;;;;33.44;28.97;98696.28;5042957;28;20060;-68
2021/09/18 11:43:01;;;;;;;4.22;2.55;;;;;;;34.08;29.28;98694.41;5046752;28;20021;-69